createdAt,value
2022-10-31T00:00:21.841Z,14.90
2022-10-31T00:04:23.154Z,14.80
2022-10-31T00:08:24.362Z,14.70
2022-10-31T00:12:26.466Z,14.60
2022-10-31T00:16:29.362Z,14.60
2022-10-31T00:20:30.951Z,14.70
2022-10-31T00:24:32.147Z,14.60
2022-10-31T00:28:33.985Z,14.40
2022-10-31T00:32:35.163Z,14.40
2022-10-31T00:36:36.304Z,14.40
2022-10-31T00:40:37.900Z,14.40
2022-10-31T00:44:39.106Z,14.60
2022-10-31T00:48:40.609Z,14.50
2022-10-31T00:52:42.042Z,14.60
2022-10-31T00:56:43.168Z,14.50
2022-10-31T01:00:46.799Z,14.60
2022-10-31T01:04:47.378Z,14.60
2022-10-31T01:08:48.989Z,14.50
2022-10-31T01:12:50.935Z,14.50
2022-10-31T01:16:52.119Z,14.40
2022-10-31T01:21:09.048Z,14.40
2022-10-31T01:25:11.164Z,14.40
2022-10-31T01:29:12.352Z,14.40
2022-10-31T01:33:13.573Z,14.50
2022-10-31T01:37:14.771Z,14.50
2022-10-31T01:41:19.312Z,14.30
2022-10-31T01:45:20.492Z,14.30
2022-10-31T01:49:42.200Z,14.30
2022-10-31T01:53:45.351Z,14.40
2022-10-31T01:57:50.280Z,14.30
2022-10-31T02:01:52.933Z,14.20
2022-10-31T02:05:56.890Z,14.20
2022-10-31T02:10:00.608Z,14.10
2022-10-31T02:14:03.317Z,14.10
2022-10-31T02:18:05.482Z,14.10
2022-10-31T02:22:13.478Z,14.10
2022-10-31T02:26:27.711Z,14.00
2022-10-31T02:30:35.617Z,14.00
2022-10-31T02:34:40.665Z,14.00
2022-10-31T02:38:54.341Z,13.90
2022-10-31T02:43:08.678Z,14.00
2022-10-31T02:47:13.663Z,13.90
2022-10-31T02:51:16.877Z,13.70
2022-10-31T02:55:31.097Z,13.60
2022-10-31T02:59:35.764Z,13.80
2022-10-31T03:03:43.497Z,13.80
2022-10-31T03:07:57.199Z,13.90
2022-10-31T03:12:02.199Z,13.70
2022-10-31T03:16:10.697Z,13.80
2022-10-31T03:20:11.976Z,13.80
2022-10-31T03:24:16.217Z,13.80
2022-10-31T03:28:20.898Z,13.80
2022-10-31T03:32:31.889Z,13.80
2022-10-31T03:36:36.265Z,13.80
2022-10-31T03:40:39.073Z,13.70
2022-10-31T03:44:44.033Z,13.70
2022-10-31T03:48:46.065Z,13.70
2022-10-31T03:52:54.125Z,13.60
2022-10-31T03:57:11.418Z,13.70
2022-10-31T04:01:16.411Z,13.70
2022-10-31T04:05:19.458Z,13.90
2022-10-31T04:09:21.919Z,13.80
2022-10-31T04:13:29.189Z,13.60
2022-10-31T04:17:34.073Z,13.60
2022-10-31T04:21:35.264Z,13.70
2022-10-31T04:25:36.434Z,13.70
2022-10-31T04:29:37.555Z,13.80
2022-10-31T04:33:39.019Z,13.70
2022-10-31T04:37:40.315Z,13.90
2022-10-31T04:41:41.505Z,13.90
2022-10-31T04:45:42.703Z,14.00
2022-10-31T04:49:43.945Z,14.00
2022-10-31T04:53:45.125Z,13.90
2022-10-31T04:57:48.523Z,13.80
2022-10-31T05:01:49.762Z,13.90
2022-10-31T05:05:51.316Z,13.80
2022-10-31T05:09:52.401Z,13.70
2022-10-31T05:13:53.501Z,13.70
2022-10-31T05:17:55.335Z,13.70
2022-10-31T05:21:56.535Z,13.70
2022-10-31T05:25:57.746Z,13.70
2022-10-31T05:33:59.964Z,13.70
2022-10-31T05:38:01.263Z,13.70
2022-10-31T05:42:02.796Z,13.60
2022-10-31T05:46:04.228Z,13.60
2022-10-31T05:50:06.741Z,13.60
2022-10-31T05:54:10.800Z,13.60
2022-10-31T05:58:11.422Z,13.60
2022-10-31T06:02:12.697Z,13.50
2022-10-31T06:06:13.897Z,13.50
2022-10-31T06:10:16.117Z,13.70
2022-10-31T06:14:17.394Z,13.70
2022-10-31T06:18:18.612Z,13.70
2022-10-31T06:22:19.912Z,13.80
2022-10-31T06:26:21.100Z,13.70
2022-10-31T06:30:22.691Z,13.60
2022-10-31T06:34:23.895Z,13.70
2022-10-31T06:38:27.221Z,13.60
2022-10-31T06:42:28.452Z,13.70
2022-10-31T06:46:29.686Z,13.70
2022-10-31T06:50:30.894Z,13.70
2022-10-31T06:54:32.057Z,13.70
2022-10-31T06:58:33.173Z,13.50
2022-10-31T07:02:34.455Z,13.50
2022-10-31T07:06:35.709Z,13.50
2022-10-31T07:10:40.500Z,13.60
2022-10-31T07:14:41.622Z,13.70
2022-10-31T07:18:42.735Z,13.70
2022-10-31T07:22:48.172Z,13.60
2022-10-31T07:26:47.874Z,13.60
2022-10-31T07:30:55.278Z,13.80
2022-10-31T07:34:56.460Z,13.90
2022-10-31T07:38:59.270Z,14.20
2022-10-31T07:43:00.779Z,14.20
2022-10-31T07:47:01.974Z,13.70
2022-10-31T07:51:03.213Z,13.70
2022-10-31T07:55:05.463Z,13.70
2022-10-31T07:59:06.676Z,13.60
2022-10-31T08:03:16.301Z,13.80
2022-10-31T08:07:18.063Z,13.80
2022-10-31T08:11:19.161Z,13.90
2022-10-31T08:15:20.356Z,13.50
2022-10-31T08:19:22.878Z,13.50
2022-10-31T08:23:24.038Z,13.70
2022-10-31T08:27:25.158Z,13.80
2022-10-31T08:31:33.351Z,13.80
2022-10-31T08:35:32.733Z,13.90
2022-10-31T08:39:33.862Z,14.10
2022-10-31T08:43:34.937Z,14.40
2022-10-31T08:47:36.135Z,14.70
2022-10-31T08:51:37.330Z,15.00
2022-10-31T08:55:40.168Z,15.30
2022-10-31T08:59:41.385Z,15.60
2022-10-31T09:03:42.595Z,15.80
2022-10-31T09:07:43.793Z,15.90
2022-10-31T09:11:44.978Z,16.00
2022-10-31T09:15:48.382Z,16.00
2022-10-31T09:19:49.559Z,16.00
2022-10-31T09:23:50.653Z,16.00
2022-10-31T09:27:53.767Z,16.00
2022-10-31T09:31:57.110Z,16.20
2022-10-31T09:35:59.585Z,16.20
2022-10-31T09:40:00.804Z,16.50
2022-10-31T09:44:26.966Z,16.60
2022-10-31T09:48:31.944Z,16.60
2022-10-31T09:52:36.865Z,16.90
2022-10-31T09:56:38.346Z,16.90
2022-10-31T10:00:39.749Z,17.20
2022-10-31T10:04:57.384Z,17.50
2022-10-31T10:09:00.838Z,17.70
2022-10-31T10:13:17.695Z,17.80
2022-10-31T10:17:25.425Z,18.10
2022-10-31T10:21:30.434Z,18.40
2022-10-31T10:25:42.271Z,18.30
2022-10-31T10:29:47.256Z,18.60
2022-10-31T10:34:25.468Z,18.80
2022-10-31T10:38:49.009Z,18.90
2022-10-31T10:43:20.296Z,19.30
2022-10-31T10:47:40.804Z,19.80
2022-10-31T10:52:26.707Z,20.00
2022-10-31T10:56:18.799Z,20.10
2022-10-31T11:00:23.137Z,19.80
2022-10-31T11:04:33.426Z,19.60
2022-10-31T11:08:36.222Z,19.80
2022-10-31T11:12:37.613Z,20.00
2022-10-31T11:16:42.220Z,19.80
2022-10-31T11:20:47.121Z,20.00
2022-10-31T11:24:48.378Z,20.30
2022-10-31T11:28:59.844Z,20.40
2022-10-31T11:33:01.691Z,20.50
2022-10-31T11:37:16.393Z,20.50
2022-10-31T11:41:21.216Z,20.60
2022-10-31T11:45:34.071Z,20.90
2022-10-31T11:49:38.657Z,20.90
2022-10-31T11:53:43.667Z,20.90
2022-10-31T11:57:47.285Z,20.90
2022-10-31T12:01:50.869Z,21.00
2022-10-31T12:06:04.882Z,20.90
2022-10-31T12:10:11.911Z,20.90
2022-10-31T12:14:29.677Z,20.40
2022-10-31T12:18:37.739Z,20.60
2022-10-31T12:23:02.790Z,20.50
2022-10-31T12:27:11.241Z,20.60
2022-10-31T12:31:31.050Z,20.40
2022-10-31T12:35:48.401Z,20.50
2022-10-31T12:40:02.693Z,20.50
2022-10-31T12:44:07.193Z,20.70
2022-10-31T12:48:18.439Z,20.70
2022-10-31T12:52:26.440Z,20.70
2022-10-31T12:56:40.647Z,20.80
2022-10-31T13:00:44.956Z,21.10
2022-10-31T13:04:56.104Z,20.80
2022-10-31T13:09:01.081Z,20.60
2022-10-31T13:13:09.076Z,20.70
2022-10-31T13:17:26.221Z,20.50
2022-10-31T13:21:33.698Z,20.30
2022-10-31T13:25:38.606Z,20.20
2022-10-31T13:30:09.158Z,19.80
2022-10-31T13:34:32.028Z,19.80
2022-10-31T13:38:48.797Z,19.80
2022-10-31T13:43:00.087Z,19.80
2022-10-31T13:47:01.465Z,19.60
2022-10-31T13:51:07.713Z,19.90
2022-10-31T13:55:29.237Z,19.90
2022-10-31T13:59:34.236Z,20.00
2022-10-31T14:04:04.665Z,19.80
2022-10-31T14:07:43.877Z,19.90
2022-10-31T14:11:48.356Z,20.10
2022-10-31T14:16:08.310Z,20.30
2022-10-31T14:20:16.378Z,20.10
2022-10-31T14:24:27.519Z,19.80
2022-10-31T14:28:35.611Z,19.80
2022-10-31T14:32:37.228Z,19.80
2022-10-31T14:36:59.051Z,19.80
2022-10-31T14:41:06.613Z,19.70
2022-10-31T14:45:17.424Z,19.80
2022-10-31T14:49:38.005Z,20.20
2022-10-31T14:53:51.520Z,20.30
2022-10-31T14:57:57.129Z,20.20
2022-10-31T15:02:01.876Z,20.40
2022-10-31T15:06:06.986Z,20.60
2022-10-31T15:10:33.643Z,20.60
2022-10-31T15:14:34.938Z,20.50
2022-10-31T15:18:39.501Z,20.50
2022-10-31T15:22:41.021Z,20.50
2022-10-31T15:26:46.151Z,20.30
2022-10-31T15:30:53.357Z,19.90
2022-10-31T15:34:56.569Z,19.80
2022-10-31T15:38:58.097Z,19.80
2022-10-31T15:43:03.080Z,19.60
2022-10-31T15:47:07.806Z,19.50
2022-10-31T15:51:09.099Z,19.40
2022-10-31T15:55:17.254Z,19.40
2022-10-31T15:59:22.278Z,19.30
2022-10-31T16:03:26.784Z,19.10
2022-10-31T16:07:29.591Z,19.00
2022-10-31T16:11:39.605Z,18.90
2022-10-31T16:15:55.974Z,18.80
2022-10-31T16:20:00.193Z,18.80
2022-10-31T16:24:06.417Z,18.50
2022-10-31T16:28:22.497Z,18.10
2022-10-31T16:32:53.729Z,17.60
2022-10-31T16:36:54.917Z,17.30
2022-10-31T16:40:55.999Z,16.90
2022-10-31T16:44:57.106Z,16.70
2022-10-31T16:48:58.295Z,16.80
2022-10-31T16:53:15.226Z,17.00
2022-10-31T16:57:04.889Z,17.20
2022-10-31T17:01:07.246Z,17.20
2022-10-31T17:05:12.696Z,17.40
2022-10-31T17:09:13.928Z,17.40
2022-10-31T17:13:18.926Z,17.30
2022-10-31T17:17:20.193Z,17.40
2022-10-31T17:21:23.002Z,17.40
2022-10-31T17:25:27.266Z,17.30
2022-10-31T17:29:28.401Z,17.40
2022-10-31T17:33:29.614Z,17.50
2022-10-31T17:37:30.733Z,17.70
2022-10-31T17:41:31.927Z,17.80
2022-10-31T17:45:33.122Z,17.90
2022-10-31T17:49:34.300Z,17.40
2022-10-31T17:53:35.385Z,16.90
2022-10-31T17:57:37.232Z,16.80
2022-10-31T18:01:38.557Z,16.80
2022-10-31T18:05:39.925Z,17.00
2022-10-31T18:09:41.110Z,17.10
2022-10-31T18:13:42.518Z,17.00
2022-10-31T18:17:45.117Z,17.00
2022-10-31T18:21:46.340Z,17.00
2022-10-31T18:25:47.474Z,16.80
2022-10-31T18:29:48.732Z,16.40
2022-10-31T18:33:53.158Z,16.70
2022-10-31T18:37:55.314Z,16.80
2022-10-31T18:41:57.441Z,16.80
2022-10-31T18:46:10.036Z,16.90
2022-10-31T18:50:11.747Z,16.80
2022-10-31T18:54:12.919Z,16.70
2022-10-31T18:58:14.015Z,16.60
2022-10-31T19:02:16.709Z,16.70
2022-10-31T19:06:17.914Z,16.60
2022-10-31T19:10:19.094Z,16.50
2022-10-31T19:14:20.227Z,16.50
2022-10-31T19:18:21.414Z,16.20
2022-10-31T19:22:22.505Z,16.00
2022-10-31T19:26:24.813Z,16.10
2022-10-31T19:30:25.977Z,16.00
2022-10-31T19:34:27.041Z,16.00
2022-10-31T19:38:28.935Z,16.00
2022-10-31T19:42:30.320Z,16.10
2022-10-31T19:46:52.919Z,16.20
2022-10-31T19:50:34.508Z,16.10
2022-10-31T19:54:35.641Z,16.00
2022-10-31T19:58:36.736Z,16.00
2022-10-31T20:02:37.918Z,15.80
2022-10-31T20:06:40.603Z,15.70
2022-10-31T20:10:44.294Z,15.80
2022-10-31T20:14:45.593Z,15.80
2022-10-31T20:18:46.758Z,15.60
2022-10-31T20:22:49.816Z,15.70
2022-10-31T20:26:51.142Z,15.70
2022-10-31T20:30:52.742Z,15.70
2022-10-31T20:34:54.058Z,15.70
2022-10-31T20:38:55.253Z,15.90
2022-10-31T20:42:57.056Z,15.70
2022-10-31T20:46:58.661Z,15.60
2022-10-31T20:51:03.815Z,15.70
2022-10-31T20:55:05.508Z,15.60
2022-10-31T20:59:06.603Z,15.60
2022-10-31T21:03:07.882Z,15.60
2022-10-31T21:07:09.114Z,15.60
2022-10-31T21:11:12.913Z,15.40
2022-10-31T21:15:14.370Z,15.50
2022-10-31T21:19:15.594Z,15.50
2022-10-31T21:23:17.074Z,15.40
2022-10-31T21:27:18.303Z,15.40
2022-10-31T21:31:19.679Z,15.40
2022-10-31T21:35:21.266Z,15.40
2022-10-31T21:39:22.657Z,15.40
2022-10-31T21:43:23.848Z,15.40
2022-10-31T21:47:25.320Z,15.40
2022-10-31T21:51:29.116Z,15.40
2022-10-31T21:55:30.808Z,15.40
2022-10-31T21:59:31.898Z,15.40
2022-10-31T22:03:37.314Z,15.30
2022-10-31T22:07:38.406Z,15.30
2022-10-31T22:11:40.899Z,15.30
2022-10-31T22:15:42.091Z,15.30
2022-10-31T22:19:43.188Z,15.20
2022-10-31T22:23:46.487Z,15.10
2022-10-31T22:27:47.673Z,15.20
2022-10-31T22:31:55.168Z,15.20
2022-10-31T22:35:54.348Z,15.10
2022-10-31T22:39:55.439Z,15.20
2022-10-31T22:43:56.903Z,15.30
2022-10-31T22:47:58.635Z,15.20
2022-10-31T22:52:02.053Z,15.30
2022-10-31T22:56:05.026Z,15.20
2022-10-31T23:00:08.072Z,15.10
2022-10-31T23:04:09.387Z,15.20
2022-10-31T23:08:10.603Z,15.30
2022-10-31T23:12:30.290Z,15.30
2022-10-31T23:16:32.467Z,15.30
2022-10-31T23:20:33.712Z,15.40
2022-10-31T23:24:43.658Z,15.40
2022-10-31T23:28:45.250Z,15.30
2022-10-31T23:32:46.529Z,15.30
2022-10-31T23:36:48.036Z,15.40
2022-10-31T23:40:49.223Z,15.40
2022-10-31T23:44:50.416Z,15.40
2022-10-31T23:48:52.906Z,15.40
2022-10-31T23:52:54.109Z,15.40
2022-10-31T23:56:55.617Z,15.30
